Terminal Aerodrome Forecast
Issued by NWS

Home | Current Version | Previous Version | Text Only | Print | Product List | Glossary On
Versions: 1 2 3 4 5 6 7 8 9 10 11 12 13 14 15 16 17 18
000
FTUS43 KLSX 050740 AAA
TAFSUS
TAF AMD
KSUS 050740Z 0508/0606 00000KT 1SM BR VV002
      TEMPO 0508/0512 1/2SM FG
     FM051200 00000KT 1SM BR BKN003
     FM051500 15005KT P6SM SCT250
     FM060400 10004KT P6SM OVC110=

USA.gov is the U.S. government's official web portal to all federal, state and local government web resources and services.